createdAt,value
2022-08-11T00:01:00.399Z,49.15
2022-08-11T00:04:43.604Z,49.13
2022-08-11T00:08:28.185Z,49.58
2022-08-11T00:12:18.382Z,49.75
2022-08-11T00:16:01.667Z,49.98
2022-08-11T00:20:11.787Z,50.06
2022-08-11T00:23:55.246Z,50.47
2022-08-11T00:27:41.165Z,50.71
2022-08-11T00:31:27.900Z,50.70
2022-08-11T00:35:53.703Z,50.95
2022-08-11T00:39:19.408Z,51.16
2022-08-11T00:43:20.993Z,51.06
2022-08-11T00:47:18.118Z,51.35
2022-08-11T00:51:11.404Z,51.92
2022-08-11T00:55:19.153Z,51.85
2022-08-11T00:59:34.529Z,52.12
2022-08-11T01:03:21.524Z,52.29
2022-08-11T01:08:01.440Z,52.37
2022-08-11T01:11:56.706Z,53.03
2022-08-11T01:16:09.470Z,53.10
2022-08-11T01:20:45.577Z,53.56
2022-08-11T01:24:49.399Z,53.38
2022-08-11T01:29:12.439Z,53.58
2022-08-11T01:33:36.144Z,54.04
2022-08-11T01:37:45.206Z,53.75
2022-08-11T01:42:32.856Z,54.30
2022-08-11T01:46:18.333Z,54.58
2022-08-11T01:50:10.778Z,54.59
2022-08-11T01:54:01.768Z,54.45
2022-08-11T01:57:48.730Z,54.77
2022-08-11T02:01:40.893Z,55.07
2022-08-11T02:05:50.416Z,55.14
2022-08-11T02:09:57.034Z,54.93
2022-08-11T02:13:42.690Z,55.48
2022-08-11T02:17:40.003Z,55.24
2022-08-11T02:21:46.470Z,55.41
2022-08-11T02:25:38.613Z,55.46
2022-08-11T02:29:24.952Z,55.49
2022-08-11T02:33:25.655Z,55.91
2022-08-11T02:37:23.731Z,56.05
2022-08-11T02:41:25.615Z,56.12
2022-08-11T02:45:18.291Z,56.19
2022-08-11T02:49:25.751Z,56.65
2022-08-11T02:53:14.262Z,56.50
2022-08-11T02:57:03.821Z,56.72
2022-08-11T03:00:55.034Z,56.68
2022-08-11T03:04:49.892Z,56.89
2022-08-11T03:08:49.083Z,57.25
2022-08-11T03:12:59.217Z,57.03
2022-08-11T03:16:53.938Z,57.52
2022-08-11T03:20:44.229Z,57.87
2022-08-11T03:24:30.578Z,57.87
2022-08-11T03:28:25.998Z,57.61
2022-08-11T03:32:12.676Z,57.55
2022-08-11T03:36:07.263Z,57.68
2022-08-11T03:39:57.230Z,57.62
2022-08-11T03:43:58.242Z,57.97
2022-08-11T03:47:52.630Z,58.12
2022-08-11T03:51:52.074Z,58.42
2022-08-11T03:55:57.583Z,58.85
2022-08-11T04:00:18.053Z,59.09
2022-08-11T04:04:30.417Z,59.58
2022-08-11T04:08:37.190Z,59.97
2022-08-11T04:12:37.097Z,60.36
2022-08-11T04:16:44.431Z,61.08
2022-08-11T04:20:51.365Z,60.73
2022-08-11T04:24:53.211Z,60.36
2022-08-11T04:28:51.121Z,61.15
2022-08-11T04:33:10.524Z,61.42
2022-08-11T04:37:30.692Z,61.04
2022-08-11T04:41:26.826Z,61.07
2022-08-11T04:45:34.773Z,61.52
2022-08-11T04:49:50.384Z,61.41
2022-08-11T04:54:01.296Z,61.46
2022-08-11T04:58:22.289Z,61.38
2022-08-11T05:03:02.514Z,61.46
2022-08-11T05:07:02.760Z,60.80
2022-08-11T05:10:57.954Z,60.99
2022-08-11T05:15:04.340Z,60.48
2022-08-11T05:19:07.868Z,60.37
2022-08-11T05:23:10.457Z,60.22
2022-08-11T05:27:14.016Z,59.53
2022-08-11T05:31:15.618Z,59.01
2022-08-11T05:34:59.270Z,59.10
2022-08-11T05:39:08.830Z,58.80
2022-08-11T05:43:11.413Z,59.09
2022-08-11T05:47:12.292Z,58.30
2022-08-11T05:51:16.488Z,58.48
2022-08-11T05:55:22.154Z,58.18
2022-08-11T05:59:05.150Z,58.01
2022-08-11T06:02:51.039Z,57.55
2022-08-11T06:06:33.985Z,56.87
2022-08-11T06:10:26.976Z,56.48
2022-08-11T06:14:10.833Z,55.66
2022-08-11T06:17:54.088Z,55.30
2022-08-11T06:21:37.358Z,54.99
2022-08-11T06:25:21.950Z,55.47
2022-08-11T06:29:05.201Z,54.78
2022-08-11T06:32:54.369Z,55.05
2022-08-11T06:36:41.365Z,54.98
2022-08-11T06:40:34.895Z,54.84
2022-08-11T06:44:23.532Z,55.04
2022-08-11T06:48:10.230Z,55.12
2022-08-11T06:51:53.038Z,55.11
2022-08-11T06:56:01.272Z,55.10
2022-08-11T06:59:58.818Z,54.92
2022-08-11T07:03:45.393Z,54.96
2022-08-11T07:08:33.539Z,54.64
2022-08-11T07:12:56.636Z,54.61
2022-08-11T07:16:42.394Z,54.67
2022-08-11T07:20:42.743Z,53.75
2022-08-11T07:25:01.377Z,53.79
2022-08-11T07:28:58.661Z,54.28
2022-08-11T07:32:47.999Z,53.45
2022-08-11T07:36:32.125Z,53.39
2022-08-11T07:40:15.965Z,53.02
2022-08-11T07:44:09.867Z,53.17
2022-08-11T07:48:11.700Z,52.86
2022-08-11T07:52:13.053Z,52.05
2022-08-11T07:55:56.749Z,52.09
2022-08-11T08:00:04.704Z,52.06
2022-08-11T08:04:06.275Z,52.42
2022-08-11T08:08:06.684Z,51.98
2022-08-11T08:12:06.950Z,52.64
2022-08-11T08:16:09.345Z,53.20
2022-08-11T08:19:53.550Z,52.47
2022-08-11T08:23:37.335Z,52.28
2022-08-11T08:27:21.567Z,51.85
2022-08-11T08:31:05.833Z,52.04
2022-08-11T08:34:51.278Z,51.80
2022-08-11T08:38:34.275Z,51.93
2022-08-11T08:42:20.151Z,51.69
2022-08-11T08:46:05.735Z,51.51
2022-08-11T08:49:51.857Z,51.27
2022-08-11T08:53:36.689Z,51.72
2022-08-11T08:57:20.694Z,51.73
2022-08-11T09:01:05.122Z,51.18
2022-08-11T09:04:48.899Z,50.51
2022-08-11T09:08:33.042Z,50.68
2022-08-11T09:12:17.387Z,50.07
2022-08-11T09:16:23.323Z,50.04
2022-08-11T09:20:08.453Z,48.95
2022-08-11T09:24:14.943Z,49.54
2022-08-11T09:28:05.427Z,48.17
2022-08-11T09:31:49.607Z,48.81
2022-08-11T09:35:36.729Z,48.60
2022-08-11T09:39:37.906Z,48.07
2022-08-11T09:43:50.443Z,48.19
2022-08-11T09:47:36.697Z,46.79
2022-08-11T09:51:19.598Z,47.02
2022-08-11T09:55:02.926Z,46.50
2022-08-11T09:58:44.847Z,45.52
2022-08-11T10:02:30.731Z,45.45
2022-08-11T10:06:34.342Z,44.81
2022-08-11T10:10:23.307Z,45.07
2022-08-11T10:14:34.450Z,45.84
2022-08-11T10:18:37.496Z,45.45
2022-08-11T10:22:39.277Z,45.12
2022-08-11T10:26:40.281Z,45.13
2022-08-11T10:30:42.393Z,44.59
2022-08-11T10:34:43.326Z,44.41
2022-08-11T10:38:38.792Z,44.31
2022-08-11T10:42:57.137Z,43.86
2022-08-11T10:46:58.543Z,44.06
2022-08-11T10:50:58.998Z,44.10
2022-08-11T10:55:01.020Z,43.09
2022-08-11T10:58:48.378Z,42.45
2022-08-11T11:02:31.458Z,43.12
2022-08-11T11:06:28.353Z,42.80
2022-08-11T11:10:13.853Z,43.33
2022-08-11T11:14:13.998Z,43.26
2022-08-11T11:18:01.550Z,43.35
2022-08-11T11:21:45.148Z,43.56
2022-08-11T11:25:39.272Z,43.62
2022-08-11T11:29:39.959Z,42.66
2022-08-11T11:33:29.278Z,43.13
2022-08-11T11:37:13.315Z,42.59
2022-08-11T11:41:14.977Z,42.68
2022-08-11T11:45:01.312Z,42.61
2022-08-11T11:48:44.509Z,42.61
2022-08-11T11:52:27.889Z,41.69
2022-08-11T11:56:12.953Z,42.21
2022-08-11T12:00:13.348Z,40.96
2022-08-11T12:03:57.144Z,41.20
2022-08-11T12:08:12.279Z,41.70
2022-08-11T12:12:20.272Z,41.45
2022-08-11T12:16:34.221Z,40.82
2022-08-11T12:20:32.032Z,40.49
2022-08-11T12:24:29.457Z,40.67
2022-08-11T12:28:14.126Z,40.33
2022-08-11T12:31:58.609Z,40.26
2022-08-11T12:35:42.655Z,39.64
2022-08-11T12:40:10.899Z,38.80
2022-08-11T12:44:23.436Z,37.36
2022-08-11T12:49:00.607Z,37.60
2022-08-11T12:52:35.668Z,36.73
2022-08-11T12:56:37.414Z,37.30
2022-08-11T13:00:39.632Z,34.92
2022-08-11T13:04:39.834Z,35.82
2022-08-11T13:08:26.395Z,34.95
2022-08-11T13:12:26.734Z,34.99
2022-08-11T13:16:11.170Z,34.17
2022-08-11T13:19:55.436Z,34.21
2022-08-11T13:23:39.428Z,34.29
2022-08-11T13:27:23.271Z,34.93
2022-08-11T13:31:12.160Z,34.14
2022-08-11T13:34:56.326Z,33.20
2022-08-11T13:38:40.565Z,33.19
2022-08-11T13:42:23.379Z,32.62
2022-08-11T13:46:22.845Z,31.94
2022-08-11T13:50:08.961Z,31.84
2022-08-11T13:53:57.894Z,32.20
2022-08-11T13:58:09.173Z,30.95
2022-08-11T14:02:03.684Z,29.73
2022-08-11T14:05:56.629Z,29.17
2022-08-11T14:09:42.091Z,28.97
2022-08-11T14:13:42.706Z,29.48
2022-08-11T14:17:46.771Z,29.26
2022-08-11T14:21:55.092Z,28.82
2022-08-11T14:26:01.262Z,29.02
2022-08-11T14:29:49.014Z,28.65
2022-08-11T14:34:00.722Z,28.05
2022-08-11T14:37:38.426Z,26.81
2022-08-11T14:42:11.286Z,25.92
2022-08-11T14:45:59.317Z,25.72
2022-08-11T14:49:50.814Z,25.33
2022-08-11T14:53:58.395Z,24.99
2022-08-11T14:57:55.493Z,25.50
2022-08-11T15:01:57.127Z,25.41
2022-08-11T15:05:55.726Z,24.81
2022-08-11T15:10:09.680Z,24.89
2022-08-11T15:13:47.070Z,24.87
2022-08-11T15:17:40.931Z,25.25
2022-08-11T15:21:43.844Z,25.58
2022-08-11T15:25:28.981Z,25.12
2022-08-11T15:29:27.302Z,24.26
2022-08-11T15:33:28.747Z,23.07
2022-08-11T15:37:31.530Z,22.37
2022-08-11T15:41:37.716Z,21.83
2022-08-11T15:45:44.749Z,21.79
2022-08-11T15:50:10.893Z,21.30
2022-08-11T15:53:41.888Z,21.95
2022-08-11T15:57:43.924Z,21.76
2022-08-11T16:01:44.836Z,21.83
2022-08-11T16:05:46.414Z,21.88
2022-08-11T16:09:46.972Z,22.24
2022-08-11T16:13:50.691Z,21.73
2022-08-11T16:17:45.413Z,22.43
2022-08-11T16:21:37.135Z,22.59
2022-08-11T16:27:03.989Z,22.49
2022-08-11T16:29:32.152Z,22.50
2022-08-11T16:33:48.791Z,22.15
2022-08-11T16:37:35.709Z,23.15
2022-08-11T16:41:40.492Z,23.37
2022-08-11T16:45:42.688Z,23.20
2022-08-11T16:49:31.492Z,23.47
2022-08-11T16:53:18.208Z,23.66
2022-08-11T16:57:22.503Z,24.34
2022-08-11T17:01:07.043Z,24.50
2022-08-11T17:05:10.632Z,24.46
2022-08-11T17:09:12.027Z,24.84
2022-08-11T17:13:11.861Z,25.32
2022-08-11T17:16:56.461Z,25.36
2022-08-11T17:20:43.783Z,25.27
2022-08-11T17:24:28.946Z,25.89
2022-08-11T17:28:14.251Z,26.82
2022-08-11T17:32:16.068Z,28.29
2022-08-11T17:35:59.777Z,28.46
2022-08-11T17:39:42.837Z,29.30
2022-08-11T17:43:43.158Z,30.32
2022-08-11T17:47:45.840Z,30.66
2022-08-11T17:51:48.630Z,30.78
2022-08-11T17:55:51.483Z,31.10
2022-08-11T17:59:56.910Z,31.01
2022-08-11T18:03:57.821Z,31.48
2022-08-11T18:07:59.716Z,32.25
2022-08-11T18:12:10.162Z,32.43
2022-08-11T18:16:12.154Z,32.81
2022-08-11T18:20:13.872Z,33.23
2022-08-11T18:24:14.141Z,33.64
2022-08-11T18:28:15.181Z,33.90
2022-08-11T18:32:22.145Z,34.34
2022-08-11T18:36:30.499Z,34.19
2022-08-11T18:40:41.111Z,34.16
2022-08-11T18:44:45.135Z,34.51
2022-08-11T18:48:46.977Z,34.66
2022-08-11T18:52:50.024Z,34.59
2022-08-11T18:56:50.401Z,34.94
2022-08-11T19:00:51.901Z,35.55
2022-08-11T19:04:52.691Z,36.10
2022-08-11T19:08:57.184Z,36.06
2022-08-11T19:13:00.454Z,36.08
2022-08-11T19:17:01.865Z,36.08
2022-08-11T19:21:02.920Z,36.27
2022-08-11T19:25:06.112Z,36.71
2022-08-11T19:29:08.377Z,36.65
2022-08-11T19:33:09.473Z,36.92
2022-08-11T19:37:11.313Z,36.82
2022-08-11T19:41:12.861Z,37.33
2022-08-11T19:45:16.354Z,37.55
2022-08-11T19:49:17.693Z,37.66
2022-08-11T19:53:18.657Z,37.87
2022-08-11T19:57:21.680Z,37.87
2022-08-11T20:01:23.203Z,38.69
2022-08-11T20:05:24.613Z,38.74
2022-08-11T20:09:25.524Z,39.11
2022-08-11T20:13:28.502Z,38.70
2022-08-11T20:17:29.973Z,38.38
2022-08-11T20:21:32.801Z,38.96
2022-08-11T20:25:35.884Z,38.84
2022-08-11T20:29:44.595Z,39.02
2022-08-11T20:33:45.149Z,39.22
2022-08-11T20:37:50.964Z,39.94
2022-08-11T20:41:59.357Z,40.28
2022-08-11T20:46:01.987Z,39.88
2022-08-11T20:50:04.425Z,40.42
2022-08-11T20:54:05.970Z,40.54
2022-08-11T20:58:15.219Z,40.74
2022-08-11T21:02:21.106Z,41.16
2022-08-11T21:06:31.252Z,41.42
2022-08-11T21:10:33.637Z,41.76
2022-08-11T21:14:33.925Z,41.92
2022-08-11T21:18:36.921Z,42.32
2022-08-11T21:22:39.078Z,42.57
2022-08-11T21:26:46.127Z,42.65
2022-08-11T21:30:47.510Z,43.00
2022-08-11T21:34:49.830Z,43.26
2022-08-11T21:38:50.107Z,43.51
2022-08-11T21:42:51.443Z,43.55
2022-08-11T21:46:53.780Z,43.93
2022-08-11T21:50:55.409Z,44.05
2022-08-11T21:54:55.900Z,44.41
2022-08-11T21:58:57.988Z,44.76
2022-08-11T22:03:07.227Z,44.71
2022-08-11T22:07:10.033Z,44.84
2022-08-11T22:11:10.347Z,44.93
2022-08-11T22:15:10.909Z,45.48
2022-08-11T22:19:11.851Z,46.20
2022-08-11T22:23:13.482Z,46.61
2022-08-11T22:27:13.939Z,46.45
2022-08-11T22:31:14.673Z,46.39
2022-08-11T22:35:16.151Z,46.25
2022-08-11T22:39:19.421Z,46.09
2022-08-11T22:43:19.619Z,46.66
2022-08-11T22:47:20.355Z,46.89
2022-08-11T22:51:22.126Z,46.74
2022-08-11T22:55:25.144Z,46.72
2022-08-11T22:59:26.013Z,47.06
2022-08-11T23:03:37.647Z,47.25
2022-08-11T23:07:49.764Z,47.30
2022-08-11T23:12:06.041Z,47.97
2022-08-11T23:16:08.437Z,47.85
2022-08-11T23:20:25.158Z,48.37
2022-08-11T23:24:28.309Z,48.73
2022-08-11T23:28:32.093Z,48.97
2022-08-11T23:32:32.642Z,49.17
2022-08-11T23:36:35.996Z,49.76
2022-08-11T23:40:47.467Z,49.91
2022-08-11T23:44:48.920Z,49.98
2022-08-11T23:48:49.816Z,50.40
2022-08-11T23:52:52.093Z,50.50
2022-08-11T23:56:53.094Z,50.36
